sensor_id;sensor_type;location;lat;lon;timestamp;pressure;altitude;pressure_sealevel;temperature;humidity
65716;BME280;63484;52.054;8.518;2023-05-28T00:03:35;101154.16;;;10.41;95.02
65716;BME280;63484;52.054;8.518;2023-05-28T00:08:37;101142.88;;;10.39;95.09
65716;BME280;63484;52.054;8.518;2023-05-28T00:13:40;101142.22;;;10.36;95.58
65716;BME280;63484;52.054;8.518;2023-05-28T00:18:42;101150.38;;;10.30;95.34
65716;BME280;63484;52.054;8.518;2023-05-28T00:23:44;101150.88;;;10.21;95.62
65716;BME280;63484;52.054;8.518;2023-05-28T00:28:47;101153.13;;;10.11;96.23
65716;BME280;63484;52.054;8.518;2023-05-28T00:33:49;101151.63;;;10.06;96.24
65716;BME280;63484;52.054;8.518;2023-05-28T00:38:50;101142.34;;;9.99;96.98
65716;BME280;63484;52.054;8.518;2023-05-28T00:43:53;101137.41;;;9.93;97.45
65716;BME280;63484;52.054;8.518;2023-05-28T00:48:55;101135.88;;;9.89;97.63
65716;BME280;63484;52.054;8.518;2023-05-28T00:53:57;101131.28;;;9.75;98.64
65716;BME280;63484;52.054;8.518;2023-05-28T00:59:00;101132.97;;;9.76;99.33
65716;BME280;63484;52.054;8.518;2023-05-28T01:04:02;101128.91;;;9.70;98.87
65716;BME280;63484;52.054;8.518;2023-05-28T01:09:07;101121.28;;;9.66;98.72
65716;BME280;63484;52.054;8.518;2023-05-28T01:14:11;101133.06;;;9.57;98.74
65716;BME280;63484;52.054;8.518;2023-05-28T01:19:16;101135.13;;;9.51;99.93
65716;BME280;63484;52.054;8.518;2023-05-28T01:24:22;101132.59;;;9.49;99.09
65716;BME280;63484;52.054;8.518;2023-05-28T01:29:24;101125.78;;;9.45;100.00
65716;BME280;63484;52.054;8.518;2023-05-28T01:34:26;101118.06;;;9.42;99.31
65716;BME280;63484;52.054;8.518;2023-05-28T01:39:32;101121.78;;;9.38;99.13
65716;BME280;63484;52.054;8.518;2023-05-28T01:44:39;101117.97;;;9.27;99.16
65716;BME280;63484;52.054;8.518;2023-05-28T01:49:43;101109.69;;;9.17;99.31
65716;BME280;63484;52.054;8.518;2023-05-28T01:54:46;101109.88;;;9.13;99.89
65716;BME280;63484;52.054;8.518;2023-05-28T01:59:48;101106.63;;;9.08;100.00
65716;BME280;63484;52.054;8.518;2023-05-28T02:04:50;101109.38;;;9.05;100.00
65716;BME280;63484;52.054;8.518;2023-05-28T02:09:53;101114.63;;;9.05;100.00
65716;BME280;63484;52.054;8.518;2023-05-28T02:14:55;101109.63;;;9.00;100.00
65716;BME280;63484;52.054;8.518;2023-05-28T02:19:57;101112.47;;;8.96;100.00
65716;BME280;63484;52.054;8.518;2023-05-28T02:25:03;101123.50;;;8.84;100.00
65716;BME280;63484;52.054;8.518;2023-05-28T02:30:07;101120.25;;;8.79;100.00
65716;BME280;63484;52.054;8.518;2023-05-28T02:35:10;101127.34;;;8.77;100.00
65716;BME280;63484;52.054;8.518;2023-05-28T02:40:15;101121.47;;;8.72;100.00
65716;BME280;63484;52.054;8.518;2023-05-28T02:45:17;101122.44;;;8.69;100.00
65716;BME280;63484;52.054;8.518;2023-05-28T02:50:20;101126.19;;;8.64;100.00
65716;BME280;63484;52.054;8.518;2023-05-28T02:55:47;101114.94;;;8.62;100.00
65716;BME280;63484;52.054;8.518;2023-05-28T03:00:49;101113.31;;;8.59;100.00
65716;BME280;63484;52.054;8.518;2023-05-28T03:05:50;101119.47;;;8.58;100.00
65716;BME280;63484;52.054;8.518;2023-05-28T03:10:54;101124.63;;;8.60;100.00
65716;BME280;63484;52.054;8.518;2023-05-28T03:15:58;101126.47;;;8.58;100.00
65716;BME280;63484;52.054;8.518;2023-05-28T03:21:00;101125.78;;;8.54;100.00
65716;BME280;63484;52.054;8.518;2023-05-28T03:26:05;101128.31;;;8.56;100.00
65716;BME280;63484;52.054;8.518;2023-05-28T03:31:06;101128.31;;;8.56;100.00
65716;BME280;63484;52.054;8.518;2023-05-28T03:36:08;101111.31;;;8.64;100.00
65716;BME280;63484;52.054;8.518;2023-05-28T03:41:13;101109.91;;;8.76;100.00
65716;BME280;63484;52.054;8.518;2023-05-28T03:46:17;101114.31;;;8.75;99.75
65716;BME280;63484;52.054;8.518;2023-05-28T03:51:18;101117.34;;;8.85;100.00
65716;BME280;63484;52.054;8.518;2023-05-28T03:56:24;101114.50;;;8.89;99.22
65716;BME280;63484;52.054;8.518;2023-05-28T04:01:26;101125.19;;;9.03;97.81
65716;BME280;63484;52.054;8.518;2023-05-28T04:06:28;101118.22;;;9.21;96.91
65716;BME280;63484;52.054;8.518;2023-05-28T04:11:34;101111.38;;;9.35;95.65
65716;BME280;63484;52.054;8.518;2023-05-28T04:16:46;101098.00;;;9.58;93.92
65716;BME280;63484;52.054;8.518;2023-05-28T04:21:47;101111.22;;;9.74;93.90
65716;BME280;63484;52.054;8.518;2023-05-28T04:26:53;101126.81;;;9.94;93.10
65716;BME280;63484;52.054;8.518;2023-05-28T04:31:55;101119.56;;;9.99;93.19
65716;BME280;63484;52.054;8.518;2023-05-28T04:36:57;101117.88;;;10.15;92.45
65716;BME280;63484;52.054;8.518;2023-05-28T04:42:02;101125.00;;;10.46;91.38
65716;BME280;63484;52.054;8.518;2023-05-28T04:47:08;101131.66;;;10.68;90.59
65716;BME280;63484;52.054;8.518;2023-05-28T04:52:10;101136.03;;;10.85;90.25
65716;BME280;63484;52.054;8.518;2023-05-28T04:57:13;101133.75;;;11.10;89.62
65716;BME280;63484;52.054;8.518;2023-05-28T05:02:17;101123.44;;;11.37;88.37
65716;BME280;63484;52.054;8.518;2023-05-28T05:07:19;101123.78;;;11.46;87.93
65716;BME280;63484;52.054;8.518;2023-05-28T05:12:26;101130.72;;;11.63;86.96
65716;BME280;63484;52.054;8.518;2023-05-28T05:17:28;101134.34;;;11.91;85.72
65716;BME280;63484;52.054;8.518;2023-05-28T05:22:31;101146.25;;;12.12;85.25
65716;BME280;63484;52.054;8.518;2023-05-28T05:27:35;101151.38;;;12.43;85.01
65716;BME280;63484;52.054;8.518;2023-05-28T05:32:38;101151.09;;;12.76;83.20
65716;BME280;63484;52.054;8.518;2023-05-28T05:37:40;101149.00;;;12.95;82.21
65716;BME280;63484;52.054;8.518;2023-05-28T05:43:02;101142.78;;;13.24;81.01
65716;BME280;63484;52.054;8.518;2023-05-28T05:48:04;101137.41;;;13.52;78.78
65716;BME280;63484;52.054;8.518;2023-05-28T05:53:08;101142.63;;;14.06;76.73
65716;BME280;63484;52.054;8.518;2023-05-28T05:58:11;101126.78;;;14.18;77.87
65716;BME280;63484;52.054;8.518;2023-05-28T06:03:14;101135.06;;;14.39;75.58
65716;BME280;63484;52.054;8.518;2023-05-28T06:08:34;101134.97;;;14.65;72.66
65716;BME280;63484;52.054;8.518;2023-05-28T06:13:49;101138.19;;;14.94;72.98
65716;BME280;63484;52.054;8.518;2023-05-28T06:18:51;101138.13;;;15.19;71.57
65716;BME280;63484;52.054;8.518;2023-05-28T06:23:52;101138.00;;;15.57;70.23
65716;BME280;63484;52.054;8.518;2023-05-28T06:28:56;101130.88;;;15.81;68.53
65716;BME280;63484;52.054;8.518;2023-05-28T06:33:59;101124.44;;;15.96;68.65
65716;BME280;63484;52.054;8.518;2023-05-28T06:39:02;101132.91;;;16.46;66.85
65716;BME280;63484;52.054;8.518;2023-05-28T06:44:06;101125.16;;;17.95;60.49
65716;BME280;63484;52.054;8.518;2023-05-28T06:49:19;101134.00;;;20.41;53.07
65716;BME280;63484;52.054;8.518;2023-05-28T06:54:24;101139.31;;;23.48;44.60
65716;BME280;63484;52.054;8.518;2023-05-28T06:59:27;101154.50;;;26.08;38.43
65716;BME280;63484;52.054;8.518;2023-05-28T07:04:42;101151.19;;;26.87;37.37
65716;BME280;63484;52.054;8.518;2023-05-28T07:09:47;101162.13;;;27.58;34.91
65716;BME280;63484;52.054;8.518;2023-05-28T07:14:51;101172.69;;;28.59;33.91
65716;BME280;63484;52.054;8.518;2023-05-28T07:19:53;101169.66;;;28.47;33.26
65716;BME280;63484;52.054;8.518;2023-05-28T07:25:07;101173.22;;;27.84;33.89
65716;BME280;63484;52.054;8.518;2023-05-28T07:30:13;101171.88;;;28.92;32.36
65716;BME280;63484;52.054;8.518;2023-05-28T07:35:15;101166.34;;;28.45;32.30
65716;BME280;63484;52.054;8.518;2023-05-28T07:40:17;101168.44;;;28.01;33.46
65716;BME280;63484;52.054;8.518;2023-05-28T07:45:23;101172.78;;;29.06;31.80
65716;BME280;63484;52.054;8.518;2023-05-28T07:50:26;101171.25;;;29.24;31.56
65716;BME280;63484;52.054;8.518;2023-05-28T07:55:44;101161.69;;;30.15;28.62
65716;BME280;63484;52.054;8.518;2023-05-28T08:00:47;101166.22;;;28.32;31.63
65716;BME280;63484;52.054;8.518;2023-05-28T08:05:49;101154.16;;;29.24;31.01
65716;BME280;63484;52.054;8.518;2023-05-28T08:10:51;101155.22;;;30.87;27.20
65716;BME280;63484;52.054;8.518;2023-05-28T08:15:58;101151.25;;;29.99;27.80
65716;BME280;63484;52.054;8.518;2023-05-28T08:21:06;101153.38;;;28.68;28.18
65716;BME280;63484;52.054;8.518;2023-05-28T08:26:09;101146.28;;;27.91;31.33
65716;BME280;63484;52.054;8.518;2023-05-28T08:31:12;101139.63;;;26.64;31.42
65716;BME280;63484;52.054;8.518;2023-05-28T08:36:40;101132.47;;;25.21;32.98
65716;BME280;63484;52.054;8.518;2023-05-28T08:41:46;101122.91;;;24.47;36.46
65716;BME280;63484;52.054;8.518;2023-05-28T08:46:50;101128.50;;;24.30;35.80
65716;BME280;63484;52.054;8.518;2023-05-28T08:52:24;101124.44;;;23.94;36.46
65716;BME280;63484;52.054;8.518;2023-05-28T08:57:28;101114.50;;;23.04;37.91
65716;BME280;63484;52.054;8.518;2023-05-28T09:02:36;101115.06;;;23.16;37.69
65716;BME280;63484;52.054;8.518;2023-05-28T09:07:38;101115.91;;;23.16;36.54
65716;BME280;63484;52.054;8.518;2023-05-28T09:12:56;101110.16;;;23.61;37.36
65716;BME280;63484;52.054;8.518;2023-05-28T09:18:00;101107.69;;;23.18;37.18
65716;BME280;63484;52.054;8.518;2023-05-28T09:23:04;101109.78;;;23.48;38.51
65716;BME280;63484;52.054;8.518;2023-05-28T09:28:25;101110.97;;;23.04;36.68
65716;BME280;63484;52.054;8.518;2023-05-28T09:33:29;101099.63;;;23.18;35.71
65716;BME280;63484;52.054;8.518;2023-05-28T09:38:38;101094.75;;;23.21;35.51
65716;BME280;63484;52.054;8.518;2023-05-28T09:43:40;101095.72;;;23.86;35.41
65716;BME280;63484;52.054;8.518;2023-05-28T09:48:43;101094.72;;;24.27;35.86
65716;BME280;63484;52.054;8.518;2023-05-28T09:53:45;101093.03;;;23.78;35.14
65716;BME280;63484;52.054;8.518;2023-05-28T09:58:48;101089.31;;;24.35;33.95
65716;BME280;63484;52.054;8.518;2023-05-28T10:04:01;101085.72;;;23.22;36.98
65716;BME280;63484;52.054;8.518;2023-05-28T10:09:04;101084.75;;;22.90;37.84
65716;BME280;63484;52.054;8.518;2023-05-28T10:14:06;101081.41;;;22.88;36.79
65716;BME280;63484;52.054;8.518;2023-05-28T10:19:11;101077.78;;;23.05;38.62
65716;BME280;63484;52.054;8.518;2023-05-28T10:24:14;101071.19;;;22.91;37.42
65716;BME280;63484;52.054;8.518;2023-05-28T10:29:15;101072.78;;;22.76;38.78
65716;BME280;63484;52.054;8.518;2023-05-28T10:34:18;101080.94;;;22.59;37.60
65716;BME280;63484;52.054;8.518;2023-05-28T10:39:21;101076.22;;;22.94;38.07
65716;BME280;63484;52.054;8.518;2023-05-28T10:44:22;101081.59;;;22.94;38.05
65716;BME280;63484;52.054;8.518;2023-05-28T10:49:28;101075.66;;;23.24;38.30
65716;BME280;63484;52.054;8.518;2023-05-28T10:54:40;101077.50;;;23.24;39.36
65716;BME280;63484;52.054;8.518;2023-05-28T10:59:43;101082.22;;;23.30;37.34
65716;BME280;63484;52.054;8.518;2023-05-28T11:04:49;101079.56;;;23.38;37.92
65716;BME280;63484;52.054;8.518;2023-05-28T11:09:51;101070.69;;;23.38;37.31
65716;BME280;63484;52.054;8.518;2023-05-28T11:14:54;101082.44;;;23.53;35.56
65716;BME280;63484;52.054;8.518;2023-05-28T11:19:57;101078.59;;;23.95;35.69
65716;BME280;63484;52.054;8.518;2023-05-28T11:25:04;101077.56;;;23.88;36.67
65716;BME280;63484;52.054;8.518;2023-05-28T11:30:11;101084.06;;;23.29;36.44
65716;BME280;63484;52.054;8.518;2023-05-28T11:35:15;101075.75;;;23.65;36.88
65716;BME280;63484;52.054;8.518;2023-05-28T11:40:17;101074.72;;;23.90;35.88
65716;BME280;63484;52.054;8.518;2023-05-28T11:45:19;101087.09;;;23.26;37.40
65716;BME280;63484;52.054;8.518;2023-05-28T11:50:24;101077.56;;;23.48;36.98
65716;BME280;63484;52.054;8.518;2023-05-28T11:55:26;101077.56;;;23.48;36.91
65716;BME280;63484;52.054;8.518;2023-05-28T12:00:31;101071.41;;;23.14;37.24
65716;BME280;63484;52.054;8.518;2023-05-28T12:05:39;101069.84;;;23.45;38.44
65716;BME280;63484;52.054;8.518;2023-05-28T12:10:42;101062.47;;;23.71;38.04
65716;BME280;63484;52.054;8.518;2023-05-28T12:15:45;101055.25;;;23.72;39.22
65716;BME280;63484;52.054;8.518;2023-05-28T12:20:48;101054.59;;;23.62;37.62
65716;BME280;63484;52.054;8.518;2023-05-28T12:25:50;101061.66;;;24.03;38.47
65716;BME280;63484;52.054;8.518;2023-05-28T12:30:53;101045.84;;;23.60;38.25
65716;BME280;63484;52.054;8.518;2023-05-28T12:35:57;101058.13;;;24.02;36.58
65716;BME280;63484;52.054;8.518;2023-05-28T12:41:00;101052.41;;;23.73;37.55
65716;BME280;63484;52.054;8.518;2023-05-28T12:46:02;101051.22;;;23.52;37.95
65716;BME280;63484;52.054;8.518;2023-05-28T12:51:05;101049.56;;;23.91;36.56
65716;BME280;63484;52.054;8.518;2023-05-28T12:56:06;101048.38;;;23.77;37.00
65716;BME280;63484;52.054;8.518;2023-05-28T13:01:08;101042.47;;;23.90;35.86
65716;BME280;63484;52.054;8.518;2023-05-28T13:06:14;101038.13;;;23.97;35.93
65716;BME280;63484;52.054;8.518;2023-05-28T13:11:16;101033.78;;;24.04;36.38
65716;BME280;63484;52.054;8.518;2023-05-28T13:16:19;101031.53;;;24.31;35.69
65716;BME280;63484;52.054;8.518;2023-05-28T13:21:22;101024.34;;;23.92;37.12
65716;BME280;63484;52.054;8.518;2023-05-28T13:26:25;101015.09;;;23.86;36.04
65716;BME280;63484;52.054;8.518;2023-05-28T13:31:27;101015.78;;;24.04;34.93
65716;BME280;63484;52.054;8.518;2023-05-28T13:36:30;101022.66;;;24.15;34.30
65716;BME280;63484;52.054;8.518;2023-05-28T13:41:32;101014.75;;;24.21;35.37
65716;BME280;63484;52.054;8.518;2023-05-28T13:46:34;101019.59;;;24.26;34.78
65716;BME280;63484;52.054;8.518;2023-05-28T13:51:39;101015.19;;;24.41;35.03
65716;BME280;63484;52.054;8.518;2023-05-28T13:56:42;101010.16;;;24.38;34.28
65716;BME280;63484;52.054;8.518;2023-05-28T14:01:46;101001.63;;;24.26;34.86
65716;BME280;63484;52.054;8.518;2023-05-28T14:06:51;100993.25;;;24.13;35.46
65716;BME280;63484;52.054;8.518;2023-05-28T14:11:53;100986.16;;;24.20;35.21
65716;BME280;63484;52.054;8.518;2023-05-28T14:16:58;100994.28;;;24.59;34.32
65716;BME280;63484;52.054;8.518;2023-05-28T14:22:01;100979.41;;;24.32;35.96
65716;BME280;63484;52.054;8.518;2023-05-28T14:27:03;100981.97;;;24.26;36.97
65716;BME280;63484;52.054;8.518;2023-05-28T14:32:08;100971.94;;;24.12;37.15
65716;BME280;63484;52.054;8.518;2023-05-28T14:37:14;100983.34;;;24.22;37.36
65716;BME280;63484;52.054;8.518;2023-05-28T14:42:17;100979.13;;;24.19;35.29
65716;BME280;63484;52.054;8.518;2023-05-28T14:47:19;100982.50;;;24.60;36.71
65716;BME280;63484;52.054;8.518;2023-05-28T14:52:23;100978.59;;;24.24;37.10
65716;BME280;63484;52.054;8.518;2023-05-28T14:57:26;100980.19;;;24.02;38.58
65716;BME280;63484;52.054;8.518;2023-05-28T15:02:28;100968.09;;;23.82;39.24
65716;BME280;63484;52.054;8.518;2023-05-28T15:07:31;100982.03;;;24.02;38.42
65716;BME280;63484;52.054;8.518;2023-05-28T15:12:33;100973.47;;;23.90;39.02
65716;BME280;63484;52.054;8.518;2023-05-28T15:17:35;100976.25;;;24.21;37.48
65716;BME280;63484;52.054;8.518;2023-05-28T15:22:38;100971.13;;;23.79;37.72
65716;BME280;63484;52.054;8.518;2023-05-28T15:27:40;100978.19;;;23.80;37.30
65716;BME280;63484;52.054;8.518;2023-05-28T15:32:43;100974.81;;;23.78;37.26
65716;BME280;63484;52.054;8.518;2023-05-28T15:37:51;100968.63;;;23.70;36.82
65716;BME280;63484;52.054;8.518;2023-05-28T15:42:53;100975.47;;;23.88;35.97
65716;BME280;63484;52.054;8.518;2023-05-28T15:47:55;100978.47;;;24.09;35.55
65716;BME280;63484;52.054;8.518;2023-05-28T15:52:59;100956.66;;;23.88;35.62
65716;BME280;63484;52.054;8.518;2023-05-28T15:58:00;100959.03;;;23.75;36.27
65716;BME280;63484;52.054;8.518;2023-05-28T16:03:03;100957.91;;;23.70;37.42
65716;BME280;63484;52.054;8.518;2023-05-28T16:08:09;100953.63;;;23.91;37.25
65716;BME280;63484;52.054;8.518;2023-05-28T16:13:14;100950.63;;;23.78;37.27
65716;BME280;63484;52.054;8.518;2023-05-28T16:18:18;100945.91;;;23.88;37.48
65716;BME280;63484;52.054;8.518;2023-05-28T16:23:25;100948.28;;;23.75;37.78
65716;BME280;63484;52.054;8.518;2023-05-28T16:28:28;100947.63;;;23.65;38.01
65716;BME280;63484;52.054;8.518;2023-05-28T16:33:31;100935.78;;;23.36;38.59
65716;BME280;63484;52.054;8.518;2023-05-28T16:38:35;100949.00;;;23.61;38.29
65716;BME280;63484;52.054;8.518;2023-05-28T16:43:37;100941.28;;;23.50;37.67
65716;BME280;63484;52.054;8.518;2023-05-28T16:48:39;100944.16;;;23.57;39.37
65716;BME280;63484;52.054;8.518;2023-05-28T16:53:43;100932.75;;;23.39;38.37
65716;BME280;63484;52.054;8.518;2023-05-28T16:58:45;100942.13;;;23.43;38.80
65716;BME280;63484;52.054;8.518;2023-05-28T17:03:47;100942.94;;;23.19;40.13
65716;BME280;63484;52.054;8.518;2023-05-28T17:08:50;100949.97;;;23.20;41.10
65716;BME280;63484;52.054;8.518;2023-05-28T17:13:52;100944.28;;;23.23;40.52
65716;BME280;63484;52.054;8.518;2023-05-28T17:18:54;100945.09;;;22.91;40.59
65716;BME280;63484;52.054;8.518;2023-05-28T17:23:57;100945.59;;;22.95;40.71
65716;BME280;63484;52.054;8.518;2023-05-28T17:28:58;100948.88;;;22.57;42.35
65716;BME280;63484;52.054;8.518;2023-05-28T17:34:00;100954.75;;;22.68;41.88
65716;BME280;63484;52.054;8.518;2023-05-28T17:39:03;100955.00;;;22.41;42.39
65716;BME280;63484;52.054;8.518;2023-05-28T17:44:07;100951.06;;;22.28;42.38
65716;BME280;63484;52.054;8.518;2023-05-28T17:49:13;100959.66;;;22.39;41.80
65716;BME280;63484;52.054;8.518;2023-05-28T17:54:16;100965.84;;;22.32;41.28
65716;BME280;63484;52.054;8.518;2023-05-28T17:59:17;100968.78;;;22.13;41.92
65716;BME280;63484;52.054;8.518;2023-05-28T18:04:19;100973.03;;;21.98;43.14
65716;BME280;63484;52.054;8.518;2023-05-28T18:09:22;100982.69;;;21.90;43.42
65716;BME280;63484;52.054;8.518;2023-05-28T18:14:24;100979.88;;;21.74;43.60
65716;BME280;63484;52.054;8.518;2023-05-28T18:19:30;100983.88;;;21.70;43.83
65716;BME280;63484;52.054;8.518;2023-05-28T18:24:35;100983.06;;;21.52;44.29
65716;BME280;63484;52.054;8.518;2023-05-28T18:29:39;100992.19;;;21.24;45.70
65716;BME280;63484;52.054;8.518;2023-05-28T18:34:44;100989.78;;;20.86;46.94
65716;BME280;63484;52.054;8.518;2023-05-28T18:39:47;101000.16;;;20.62;48.46
65716;BME280;63484;52.054;8.518;2023-05-28T18:44:51;101010.84;;;20.35;50.38
65716;BME280;63484;52.054;8.518;2023-05-28T18:49:53;101019.38;;;20.02;51.31
65716;BME280;63484;52.054;8.518;2023-05-28T18:54:56;101028.72;;;19.79;52.90
65716;BME280;63484;52.054;8.518;2023-05-28T18:59:58;101027.88;;;19.50;54.32
65716;BME280;63484;52.054;8.518;2023-05-28T19:05:02;101034.72;;;19.23;54.78
65716;BME280;63484;52.054;8.518;2023-05-28T19:10:06;101042.72;;;19.04;56.25
65716;BME280;63484;52.054;8.518;2023-05-28T19:15:08;101046.41;;;18.73;57.52
65716;BME280;63484;52.054;8.518;2023-05-28T19:20:10;101055.47;;;18.61;58.14
65716;BME280;63484;52.054;8.518;2023-05-28T19:25:14;101068.47;;;18.25;59.66
65716;BME280;63484;52.054;8.518;2023-05-28T19:30:15;101072.63;;;18.18;58.03
65716;BME280;63484;52.054;8.518;2023-05-28T19:35:17;101093.47;;;17.92;58.96
65716;BME280;63484;52.054;8.518;2023-05-28T19:40:20;101103.66;;;17.66;59.82
65716;BME280;63484;52.054;8.518;2023-05-28T19:45:22;101103.81;;;17.54;59.67
65716;BME280;63484;52.054;8.518;2023-05-28T19:50:24;101119.06;;;17.41;61.14
65716;BME280;63484;52.054;8.518;2023-05-28T19:55:27;101118.16;;;17.09;61.97
65716;BME280;63484;52.054;8.518;2023-05-28T20:00:29;101132.19;;;16.89;62.91
65716;BME280;63484;52.054;8.518;2023-05-28T20:05:33;101135.94;;;16.86;62.69
65716;BME280;63484;52.054;8.518;2023-05-28T20:10:36;101147.41;;;16.65;62.47
65716;BME280;63484;52.054;8.518;2023-05-28T20:15:37;101153.06;;;16.49;62.09
65716;BME280;63484;52.054;8.518;2023-05-28T20:20:39;101151.50;;;16.46;61.15
65716;BME280;63484;52.054;8.518;2023-05-28T20:25:43;101166.78;;;16.43;61.42
65716;BME280;63484;52.054;8.518;2023-05-28T20:30:45;101159.09;;;16.16;62.33
65716;BME280;63484;52.054;8.518;2023-05-28T20:35:49;101157.16;;;16.07;62.69
65716;BME280;63484;52.054;8.518;2023-05-28T20:40:53;101175.94;;;15.93;63.30
65716;BME280;63484;52.054;8.518;2023-05-28T20:45:55;101178.78;;;15.90;63.51
65716;BME280;63484;52.054;8.518;2023-05-28T20:50:57;101181.84;;;15.73;64.33
65716;BME280;63484;52.054;8.518;2023-05-28T20:56:00;101186.69;;;15.56;65.28
65716;BME280;63484;52.054;8.518;2023-05-28T21:01:02;101194.25;;;15.49;66.02
65716;BME280;63484;52.054;8.518;2023-05-28T21:06:06;101205.41;;;15.29;67.31
65716;BME280;63484;52.054;8.518;2023-05-28T21:11:09;101212.75;;;15.13;67.58
65716;BME280;63484;52.054;8.518;2023-05-28T21:16:11;101212.13;;;14.97;69.09
65716;BME280;63484;52.054;8.518;2023-05-28T21:21:12;101210.00;;;14.77;69.93
65716;BME280;63484;52.054;8.518;2023-05-28T21:26:16;101212.47;;;14.92;70.53
65716;BME280;63484;52.054;8.518;2023-05-28T21:31:17;101212.47;;;14.80;71.99
65716;BME280;63484;52.054;8.518;2023-05-28T21:36:21;101220.50;;;14.53;73.19
65716;BME280;63484;52.054;8.518;2023-05-28T21:41:24;101207.66;;;14.35;74.04
65716;BME280;63484;52.054;8.518;2023-05-28T21:46:26;101211.25;;;14.34;74.89
65716;BME280;63484;52.054;8.518;2023-05-28T21:51:28;101203.78;;;14.14;75.95
65716;BME280;63484;52.054;8.518;2023-05-28T21:56:32;101198.47;;;14.01;75.86
65716;BME280;63484;52.054;8.518;2023-05-28T22:01:33;101208.25;;;13.86;76.74
65716;BME280;63484;52.054;8.518;2023-05-28T22:06:35;101207.91;;;13.78;77.97
65716;BME280;63484;52.054;8.518;2023-05-28T22:11:41;101207.59;;;13.83;77.87
65716;BME280;63484;52.054;8.518;2023-05-28T22:16:44;101200.69;;;13.68;79.53
65716;BME280;63484;52.054;8.518;2023-05-28T22:21:46;101208.84;;;13.51;79.71
65716;BME280;63484;52.054;8.518;2023-05-28T22:26:49;101216.50;;;13.41;81.25
65716;BME280;63484;52.054;8.518;2023-05-28T22:31:50;101213.50;;;13.33;81.19
65716;BME280;63484;52.054;8.518;2023-05-28T22:36:54;101223.38;;;13.44;81.08
65716;BME280;63484;52.054;8.518;2023-05-28T22:41:57;101218.13;;;13.30;80.68
65716;BME280;63484;52.054;8.518;2023-05-28T22:47:00;101218.44;;;13.11;81.83
65716;BME280;63484;52.054;8.518;2023-05-28T22:52:01;101212.09;;;13.00;82.84
65716;BME280;63484;52.054;8.518;2023-05-28T22:57:05;101218.41;;;12.97;83.01
65716;BME280;63484;52.054;8.518;2023-05-28T23:02:07;101217.13;;;13.04;82.88
65716;BME280;63484;52.054;8.518;2023-05-28T23:07:09;101215.75;;;12.83;83.83
65716;BME280;63484;52.054;8.518;2023-05-28T23:12:13;101215.75;;;12.83;83.03
65716;BME280;63484;52.054;8.518;2023-05-28T23:17:14;101223.44;;;12.58;84.05
65716;BME280;63484;52.054;8.518;2023-05-28T23:22:17;101222.91;;;12.53;83.86
65716;BME280;63484;52.054;8.518;2023-05-28T23:27:20;101229.50;;;12.60;83.30
65716;BME280;63484;52.054;8.518;2023-05-28T23:32:24;101225.09;;;12.31;84.48
65716;BME280;63484;52.054;8.518;2023-05-28T23:37:26;101229.38;;;12.18;84.64
65716;BME280;63484;52.054;8.518;2023-05-28T23:42:29;101235.53;;;12.03;85.47
65716;BME280;63484;52.054;8.518;2023-05-28T23:47:33;101235.13;;;11.95;85.82
65716;BME280;63484;52.054;8.518;2023-05-28T23:52:35;101240.75;;;11.89;85.20
65716;BME280;63484;52.054;8.518;2023-05-28T23:57:38;101239.06;;;11.88;85.22
